»·PEaware :: UAL956 KEWR-LSGG

UAL956 :: KEWR-LSGG

FLIGHT INFORMATION

Flight Status: Arrived
Operator:
United Airlines
More flights by this operator :: More flights under this callsign
Pilot: Timothy W. (9658)
Aircraft: BOEING 767-300
(B763)
More flights by this aircraft type
Origin: KEWR Newark Intl
United States
Destination: LSGG Geneva
Switzerland
More flights between these airports :: More routes between these airports
Route: ALLRY DINIM ELSOX GAPLI UL739 MABUG/N0471F370 UL739 LIZAD UN160 PIGOP UN491 RESMI UM975 LUSAR LUSA1R
File this flight plan on PilotEdge
Remarks:
Altitude:
(Current/Filed)
35,000ft
Speed:
(Current/Filed)
473kts
Departed: 04-May-18 08:18 AM
Arrived: 04-May-18 03:29 PM
Distance/Time
Traveled:
3359nm/7:11
Distance/Time
To Go:
Arrived

Flight Plot

Page will automatically refresh every two minutes.

Flight plan parsing failed; only flown route is shown


Map Options




Map Legend


Flown Route
Filed Route
Departure Airport
Arrival Airport
Navaid (VOR, NDB)
Fix

Horizontal Profiles

Position Reports

Time Latitude Longitude Heading Altitude Ground
Speed
04-May-18 08:15 40.702827 -74.163955 99 29ft 0kts
04-May-18 08:16 40.703135 -74.162819 57 29ft 6kts
04-May-18 08:17 40.701249 -74.163027 204 29ft 20kts
04-May-18 08:18 40.677560 -74.177841 203 73ft 155kts
04-May-18 08:19 40.633515 -74.190327 178 1125ft 174kts
04-May-18 08:20 40.574351 -74.185986 178 2218ft 250kts
04-May-18 08:21 40.503679 -74.181439 179 4974ft 264kts
04-May-18 08:22 40.437809 -74.177571 186 5010ft 258kts
04-May-18 08:23 40.405997 -74.236135 272 6554ft 250kts
04-May-18 08:24 40.453338 -74.301149 312 8447ft 263kts
04-May-18 08:25 40.503416 -74.370060 306 9002ft 262kts
04-May-18 08:26 40.550718 -74.441469 306 9010ft 260kts
04-May-18 08:27 40.596603 -74.511553 306 9008ft 258kts
04-May-18 08:28 40.642931 -74.582542 307 9035ft 261kts
04-May-18 08:29 40.693602 -74.660506 306 10515ft 321kts
04-May-18 08:30 40.761447 -74.755320 323 12500ft 384kts
04-May-18 08:31 40.868669 -74.759388 21 15295ft 430kts
04-May-18 08:32 40.953404 -74.648766 64 17804ft 455kts
04-May-18 08:33 40.983664 -74.485322 70 20125ft 471kts
04-May-18 08:34 41.053097 -74.336732 53 22240ft 485kts
04-May-18 08:35 41.129117 -74.190719 52 24039ft 492kts
04-May-18 08:36 41.212147 -74.045074 47 25856ft 504kts
04-May-18 08:37 41.300169 -73.899394 48 27550ft 518kts
04-May-18 08:38 41.386758 -73.756322 48 28945ft 531kts
04-May-18 08:39 41.478680 -73.602472 48 30438ft 540kts
04-May-18 08:40 41.568834 -73.450687 48 32141ft 538kts
04-May-18 08:41 41.661081 -73.294629 48 33617ft 536kts
04-May-18 08:42 41.752248 -73.139550 48 34932ft 533kts
04-May-18 08:43 41.842347 -72.985500 47 35012ft 527kts
04-May-18 08:44 41.925084 -72.844119 48 34987ft 527kts
04-May-18 08:45 42.008389 -72.701003 48 34988ft 527kts
04-May-18 08:46 42.097574 -72.546347 48 34978ft 527kts
04-May-18 08:47 42.186767 -72.390828 48 34974ft 527kts
04-May-18 08:48 42.276288 -72.233923 48 34978ft 527kts
04-May-18 08:49 42.365127 -72.077400 48 35005ft 527kts
04-May-18 08:50 42.453770 -71.920398 48 35009ft 527kts
04-May-18 08:51 42.533751 -71.779307 49 34990ft 528kts
04-May-18 08:52 42.621518 -71.622516 49 34983ft 528kts
04-May-18 08:53 42.709816 -71.463730 49 34981ft 528kts
04-May-18 08:54 42.797727 -71.304778 49 34984ft 528kts
04-May-18 08:55 42.885688 -71.144882 49 34985ft 528kts
04-May-18 08:56 42.973913 -70.983608 48 34992ft 535kts
04-May-18 08:57 43.057502 -70.830948 47 34977ft 537kts
04-May-18 08:58 43.146059 -70.667997 48 34981ft 536kts
04-May-18 08:59 43.233641 -70.505357 48 34990ft 536kts
04-May-18 09:00 43.321731 -70.340828 48 34993ft 536kts
04-May-18 09:01 43.409240 -70.176474 48 34995ft 536kts
04-May-18 09:02 43.496871 -70.010964 48 34999ft 536kts
04-May-18 09:03 43.579864 -69.853928 48 34991ft 536kts
04-May-18 09:04 43.667089 -69.688343 48 34996ft 537kts
04-May-18 09:05 43.752490 -69.524385 48 34999ft 537kts
04-May-18 09:06 43.836472 -69.362203 48 35001ft 537kts
04-May-18 09:07 43.914236 -69.211224 48 35003ft 537kts
04-May-18 09:08 43.998517 -69.046682 48 35006ft 535kts
04-May-18 09:09 44.083790 -68.879358 48 34998ft 532kts
04-May-18 09:10 44.169615 -68.711409 48 35007ft 532kts
04-May-18 09:11 44.254220 -68.543468 48 35017ft 532kts
04-May-18 09:12 44.338751 -68.374608 48 35019ft 532kts
04-May-18 09:13 44.423123 -68.205084 48 35022ft 533kts
04-May-18 09:14 44.507422 -68.034703 48 35024ft 533kts
04-May-18 09:15 44.590677 -67.865771 49 35013ft 533kts
04-May-18 09:16 44.675260 -67.694112 49 35015ft 533kts
04-May-18 09:17 44.758788 -67.522327 49 35017ft 534kts
04-May-18 09:18 44.841421 -67.351296 49 35020ft 534kts
04-May-18 09:18 44.910229 -67.208105 49 35017ft 534kts
04-May-18 09:19 44.992500 -67.035914 49 35016ft 534kts
04-May-18 09:20 45.073893 -66.864932 48 35002ft 538kts
04-May-18 09:21 45.157231 -66.689796 48 35004ft 541kts
04-May-18 09:22 45.240066 -66.513335 48 35005ft 541kts
04-May-18 09:23 45.320483 -66.340895 48 35006ft 541kts
04-May-18 09:24 45.403053 -66.162759 48 35005ft 542kts
04-May-18 09:25 45.485382 -65.984004 48 35007ft 542kts
04-May-18 09:26 45.567083 -65.806813 49 34996ft 543kts
04-May-18 09:27 45.648224 -65.628914 49 34998ft 542kts
04-May-18 09:28 45.729282 -65.449595 49 35000ft 543kts
04-May-18 09:29 45.810505 -65.268721 49 34996ft 543kts
04-May-18 09:30 45.891783 -65.086545 49 34997ft 543kts
04-May-18 09:31 45.970573 -64.908798 49 35000ft 541kts
04-May-18 09:32 46.048089 -64.734593 50 34986ft 541kts
04-May-18 09:33 46.128148 -64.551874 50 34989ft 541kts
04-May-18 09:34 46.207768 -64.368787 50 34990ft 541kts
04-May-18 09:35 46.287410 -64.184446 50 34995ft 542kts
04-May-18 09:36 46.366684 -63.999696 50 34999ft 541kts
04-May-18 09:37 46.445242 -63.816590 49 34977ft 536kts
04-May-18 09:38 46.522433 -63.635073 50 34984ft 536kts
04-May-18 09:39 46.600205 -63.450258 50 34993ft 536kts
04-May-18 09:40 46.677014 -63.266451 50 34997ft 536kts
04-May-18 09:41 46.753706 -63.081677 50 35000ft 535kts
04-May-18 09:42 46.829533 -62.897742 50 35002ft 530kts
04-May-18 09:43 46.905085 -62.715188 49 34988ft 529kts
04-May-18 09:44 46.979082 -62.533410 48 34988ft 525kts
04-May-18 09:45 47.052785 -62.351035 47 34989ft 521kts
04-May-18 09:46 47.125979 -62.168773 47 34997ft 521kts
04-May-18 09:47 47.198717 -61.986334 47 34996ft 521kts
04-May-18 09:48 47.265775 -61.818383 48 34982ft 522kts
04-May-18 09:49 47.337829 -61.636124 48 34984ft 524kts
04-May-18 09:50 47.409793 -61.452060 48 34984ft 523kts
04-May-18 09:51 47.481287 -61.267941 48 34990ft 523kts
04-May-18 09:52 47.552129 -61.084160 48 34988ft 520kts
04-May-18 09:53 47.622456 -60.900517 47 35008ft 514kts
04-May-18 09:54 47.691854 -60.720168 48 34991ft 517kts
04-May-18 09:55 47.761518 -60.535978 48 34992ft 518kts
04-May-18 09:56 47.830535 -60.352014 48 34998ft 518kts
04-May-18 09:57 47.899979 -60.165627 48 35007ft 518kts
04-May-18 09:58 47.969350 -59.978136 48 35052ft 519kts
04-May-18 09:59 48.038534 -59.791459 48 35041ft 519kts
04-May-18 10:00 48.107241 -59.603688 49 35044ft 521kts
04-May-18 10:01 48.175710 -59.414620 49 35044ft 520kts
04-May-18 10:02 48.243898 -59.224967 49 35047ft 520kts
04-May-18 10:03 48.311938 -59.034335 49 35050ft 520kts
04-May-18 10:04 48.379190 -58.845442 50 35036ft 517kts
04-May-18 10:05 48.445762 -58.657578 50 35039ft 517kts
04-May-18 10:06 48.512612 -58.466201 50 35038ft 517kts
04-May-18 10:07 48.578985 -58.274722 50 35052ft 517kts
04-May-18 10:08 48.644999 -58.082861 50 35055ft 517kts
04-May-18 10:09 48.710451 -57.891204 51 35058ft 517kts
04-May-18 10:10 48.776559 -57.698479 51 35064ft 519kts
04-May-18 10:11 48.841722 -57.504939 51 35067ft 519kts
04-May-18 10:12 48.906366 -57.311265 51 35064ft 518kts
04-May-18 10:13 48.971208 -57.115578 51 35067ft 519kts
04-May-18 10:14 49.036201 -56.918025 55 35069ft 524kts
04-May-18 10:15 49.100683 -56.722539 56 35058ft 526kts
04-May-18 10:16 49.165174 -56.523441 57 35060ft 527kts
04-May-18 10:17 49.229620 -56.322767 57 35065ft 529kts
04-May-18 10:18 49.293963 -56.120719 57 35065ft 528kts
04-May-18 10:19 49.357534 -55.919523 57 35097ft 528kts
04-May-18 10:20 49.420917 -55.719651 58 35093ft 528kts
04-May-18 10:21 49.483790 -55.517655 57 35098ft 529kts
04-May-18 10:23 49.546166 -55.315333 58 35098ft 529kts
04-May-18 10:24 49.608279 -55.112267 58 35111ft 530kts
04-May-18 10:25 49.669218 -54.911319 59 35110ft 527kts
04-May-18 10:26 49.730897 -54.708744 60 35098ft 527kts
04-May-18 10:27 49.792136 -54.503649 60 35105ft 527kts
04-May-18 10:28 49.853204 -54.297172 60 35101ft 527kts
04-May-18 10:29 49.910736 -54.101008 59 35105ft 527kts
04-May-18 10:30 49.966011 -53.911027 59 35105ft 527kts
04-May-18 10:31 50.019075 -53.729699 60 35096ft 527kts
04-May-18 10:32 50.078648 -53.522007 60 35102ft 528kts
04-May-18 10:33 50.137442 -53.314894 60 35100ft 527kts
04-May-18 10:34 50.196249 -53.105914 60 35103ft 528kts
04-May-18 10:35 50.253379 -52.901085 60 35106ft 526kts
04-May-18 10:36 50.310846 -52.695963 61 35097ft 526kts
04-May-18 10:37 50.368350 -52.486353 61 35099ft 526kts
04-May-18 10:38 50.425215 -52.276969 61 35065ft 525kts
04-May-18 10:39 50.481444 -52.067222 63 35101ft 526kts
04-May-18 10:40 50.525741 -51.851182 69 35120ft 530kts
04-May-18 10:41 50.565707 -51.629491 70 35137ft 531kts
04-May-18 10:42 50.603590 -51.411285 70 35139ft 531kts
04-May-18 10:43 50.641826 -51.187919 70 35142ft 531kts
04-May-18 10:44 50.679535 -50.964847 71 35144ft 531kts
04-May-18 10:45 50.717647 -50.740248 72 35135ft 531kts
04-May-18 10:46 50.754790 -50.515386 72 35137ft 531kts
04-May-18 10:47 50.791357 -50.290289 72 35139ft 531kts
04-May-18 10:48 50.827145 -50.066981 72 35142ft 531kts
04-May-18 10:49 50.862904 -49.842354 72 35133ft 531kts
04-May-18 10:50 50.898356 -49.618362 73 35136ft 531kts
04-May-18 10:51 50.933085 -49.392713 73 35138ft 531kts
04-May-18 10:52 50.967222 -49.167606 73 35140ft 532kts
04-May-18 10:53 51.001096 -48.940995 73 35143ft 531kts
04-May-18 10:54 51.035102 -48.714883 74 35134ft 531kts
04-May-18 10:55 51.067875 -48.489843 74 35137ft 531kts
04-May-18 10:56 51.100408 -48.262477 74 35139ft 531kts
04-May-18 10:57 51.131791 -48.039832 74 35141ft 531kts
04-May-18 10:58 51.164058 -47.810557 74 35133ft 531kts
04-May-18 10:59 51.195441 -47.583424 75 35135ft 531kts
04-May-18 11:00 51.226285 -47.354337 75 35138ft 531kts
04-May-18 11:01 51.256295 -47.127780 75 35140ft 531kts
04-May-18 11:02 51.286139 -46.898805 75 35141ft 529kts
04-May-18 11:03 51.316100 -46.670811 75 35135ft 528kts
04-May-18 11:04 51.345174 -46.440710 76 35136ft 528kts
04-May-18 11:05 51.373186 -46.214845 76 35138ft 528kts
04-May-18 11:06 51.401115 -45.985785 76 35141ft 528kts
04-May-18 11:07 51.429194 -45.756511 76 35133ft 528kts
04-May-18 11:08 51.456067 -45.529715 76 35135ft 528kts
04-May-18 11:09 51.482743 -45.299141 76 35137ft 528kts
04-May-18 11:10 51.508833 -45.069440 76 35140ft 528kts
04-May-18 11:11 51.534596 -44.840587 77 35131ft 524kts
04-May-18 11:12 51.560221 -44.611005 78 35137ft 524kts
04-May-18 11:13 51.584895 -44.381386 78 35139ft 524kts
04-May-18 11:14 51.608997 -44.152458 78 35140ft 524kts
04-May-18 11:15 51.632779 -43.922007 78 34793ft 524kts
04-May-18 11:16 51.656812 -43.691440 79 34553ft 525kts
04-May-18 11:17 51.679551 -43.462755 79 34534ft 525kts
04-May-18 11:18 51.702232 -43.229041 79 34536ft 525kts
04-May-18 11:19 51.724367 -42.996038 79 34538ft 522kts
04-May-18 11:20 51.746337 -42.765709 80 34532ft 521kts
04-May-18 11:21 51.767583 -42.533986 80 34533ft 521kts
04-May-18 11:22 51.787860 -42.305775 80 34535ft 521kts
04-May-18 11:23 51.807844 -42.075519 80 34537ft 521kts
04-May-18 11:24 51.827591 -41.845010 80 34530ft 521kts
04-May-18 11:25 51.847210 -41.614490 81 34532ft 522kts
04-May-18 11:26 51.865915 -41.383069 81 34534ft 522kts
04-May-18 11:27 51.884177 -41.150971 81 34536ft 521kts
04-May-18 11:28 51.901932 -40.919474 82 34538ft 522kts
04-May-18 11:29 51.919655 -40.691371 83 34531ft 521kts
04-May-18 11:30 51.936634 -40.458597 83 34534ft 522kts
04-May-18 11:31 51.953124 -40.225071 83 34535ft 521kts
04-May-18 11:32 51.969147 -39.991390 83 34537ft 521kts
04-May-18 11:33 51.985162 -39.759634 84 34532ft 521kts
04-May-18 11:34 52.000448 -39.525599 84 34533ft 522kts
04-May-18 11:35 52.015130 -39.290833 84 34535ft 521kts
04-May-18 11:36 52.029314 -39.056440 84 34536ft 523kts
04-May-18 11:36 52.040891 -38.860779 85 34532ft 526kts
04-May-18 11:37 52.054914 -38.624960 86 34535ft 525kts
04-May-18 11:38 52.067878 -38.388677 86 34561ft 525kts
04-May-18 11:39 52.080324 -38.152543 86 34564ft 525kts
04-May-18 11:40 52.092283 -37.916556 86 34566ft 525kts
04-May-18 11:41 52.104467 -37.680691 87 34559ft 525kts
04-May-18 11:42 52.115514 -37.445320 87 34561ft 525kts
04-May-18 11:43 52.126075 -37.208679 87 34563ft 525kts
04-May-18 11:44 52.136184 -36.971739 88 34566ft 526kts
04-May-18 11:45 52.146444 -36.734204 89 34560ft 526kts
04-May-18 11:46 52.155716 -36.497128 89 34561ft 526kts
04-May-18 11:47 52.164391 -36.259759 89 34564ft 526kts
04-May-18 11:48 52.172594 -36.022045 89 34566ft 526kts
04-May-18 11:49 52.180801 -35.785195 89 34559ft 526kts
04-May-18 11:50 52.188302 -35.547257 90 34561ft 526kts
04-May-18 11:51 52.195066 -35.309815 90 34896ft 526kts
04-May-18 11:52 52.201354 -35.072057 90 34980ft 526kts
04-May-18 11:53 52.207428 -34.834838 91 35147ft 525kts
04-May-18 11:54 52.213216 -34.597530 92 35236ft 524kts
04-May-18 11:55 52.217991 -34.364773 92 35239ft 524kts
04-May-18 11:56 52.222324 -34.129608 92 35241ft 525kts
04-May-18 11:57 52.226225 -33.892269 92 35242ft 524kts
04-May-18 11:58 52.230359 -33.656054 92 35236ft 524kts
04-May-18 11:59 52.233357 -33.418920 92 35239ft 524kts
04-May-18 12:00 52.235833 -33.181270 93 35241ft 524kts
04-May-18 12:01 52.237852 -32.943419 94 35244ft 524kts
04-May-18 12:02 52.240026 -32.707087 95 35238ft 523kts
04-May-18 12:03 52.241160 -32.470866 95 35239ft 523kts
04-May-18 12:04 52.241732 -32.234112 95 35241ft 523kts
04-May-18 12:05 52.241831 -31.997222 95 35244ft 523kts
04-May-18 12:06 52.242033 -31.760051 95 35238ft 523kts
04-May-18 12:07 52.241372 -31.523555 96 35239ft 522kts
04-May-18 12:08 52.240056 -31.287387 96 35241ft 523kts
04-May-18 12:09 52.238287 -31.050820 97 35242ft 525kts
04-May-18 12:10 52.236389 -30.813299 98 35234ft 525kts
04-May-18 12:11 52.233978 -30.575562 99 35241ft 525kts
04-May-18 12:12 52.230782 -30.338772 99 35240ft 525kts
04-May-18 12:13 52.227070 -30.100953 99 35243ft 524kts
04-May-18 12:14 52.222965 -29.863284 99 35236ft 524kts
04-May-18 12:15 52.218961 -29.626141 100 35238ft 524kts
04-May-18 12:16 52.213966 -29.393448 100 35240ft 524kts
04-May-18 12:17 52.208300 -29.153747 100 35243ft 525kts
04-May-18 12:18 52.202216 -28.916554 100 35245ft 529kts
04-May-18 12:19 52.196267 -28.675969 101 35155ft 532kts
04-May-18 12:20 52.189193 -28.435718 101 35062ft 532kts
04-May-18 12:21 52.181543 -28.194808 101 34802ft 533kts
04-May-18 12:22 52.173447 -27.955159 101 34305ft 532kts
04-May-18 12:23 52.165532 -27.715911 102 34292ft 532kts
04-May-18 12:24 52.156508 -27.474859 102 34292ft 532kts
04-May-18 12:25 52.146935 -27.235243 102 34297ft 533kts
04-May-18 12:26 52.136809 -26.994279 101 34300ft 536kts
04-May-18 12:27 52.126762 -26.752254 102 34288ft 540kts
04-May-18 12:28 52.115966 -26.514286 102 34293ft 540kts
04-May-18 12:29 52.104464 -26.275113 102 34295ft 539kts
04-May-18 12:30 52.092335 -26.033470 102 34296ft 540kts
04-May-18 12:31 52.080083 -25.789543 102 34286ft 539kts
04-May-18 12:32 52.067309 -25.549710 103 34291ft 539kts
04-May-18 12:33 52.053494 -25.304646 103 34293ft 539kts
04-May-18 12:34 52.039326 -25.062757 102 34296ft 539kts
04-May-18 12:35 52.025118 -24.822423 102 34284ft 537kts
04-May-18 12:36 52.010366 -24.580630 103 34290ft 538kts
04-May-18 12:37 51.994775 -24.339629 103 34292ft 538kts
04-May-18 12:38 51.978838 -24.101077 104 34347ft 531kts
04-May-18 12:40 51.962572 -23.864043 104 34342ft 530kts
04-May-18 12:41 51.946411 -23.627037 105 34342ft 530kts
04-May-18 12:42 51.929144 -23.390192 105 34345ft 530kts
04-May-18 12:43 51.911528 -23.155554 104 34347ft 530kts
04-May-18 12:44 51.893209 -22.918282 104 34351ft 529kts
04-May-18 12:45 51.875265 -22.682735 104 34340ft 528kts
04-May-18 12:46 51.856275 -22.448192 104 34345ft 527kts
04-May-18 12:47 51.836773 -22.214118 104 34345ft 527kts
04-May-18 12:48 51.816754 -21.979604 104 34345ft 527kts
04-May-18 12:49 51.796876 -21.745193 104 34570ft 525kts
04-May-18 12:50 51.776214 -21.512750 105 35260ft 526kts
04-May-18 12:51 51.754789 -21.278725 105 35262ft 526kts
04-May-18 12:52 51.733015 -21.046248 104 35263ft 525kts
04-May-18 12:53 51.711975 -20.822543 104 35253ft 521kts
04-May-18 12:54 51.689823 -20.591709 104 35261ft 522kts
04-May-18 12:55 51.666846 -20.361070 105 35263ft 521kts
04-May-18 12:56 51.643414 -20.130930 104 35262ft 522kts
04-May-18 12:57 51.619577 -19.901378 104 35262ft 521kts
04-May-18 12:58 51.596041 -19.672437 105 35260ft 522kts
04-May-18 12:59 51.571901 -19.448265 105 35259ft 521kts
04-May-18 13:00 51.546755 -19.219659 105 35263ft 521kts
04-May-18 13:01 51.521039 -18.990217 105 35264ft 520kts
04-May-18 13:02 51.495736 -18.763259 106 35256ft 519kts
04-May-18 13:03 51.469634 -18.537109 105 35256ft 518kts
04-May-18 13:04 51.442915 -18.311084 106 35267ft 519kts
04-May-18 13:05 51.415601 -18.084049 106 35269ft 520kts
04-May-18 13:06 51.388100 -17.858261 106 35265ft 518kts
04-May-18 13:07 51.360495 -17.631537 106 35263ft 519kts
04-May-18 13:08 51.332124 -17.407058 106 35267ft 519kts
04-May-18 13:09 51.303035 -17.180840 106 35269ft 519kts
04-May-18 13:10 51.273550 -16.955178 107 35270ft 519kts
04-May-18 13:11 51.244170 -16.728988 108 35263ft 523kts
04-May-18 13:12 51.213780 -16.502864 108 35266ft 522kts
04-May-18 13:13 51.182845 -16.277009 108 35268ft 523kts
04-May-18 13:14 51.151461 -16.051373 108 35267ft 522kts
04-May-18 13:15 51.119974 -15.825914 108 35258ft 522kts
04-May-18 13:16 51.088199 -15.601426 109 35265ft 523kts
04-May-18 13:17 51.055651 -15.377524 109 35265ft 522kts
04-May-18 13:18 51.022486 -15.152738 108 35265ft 521kts
04-May-18 13:19 51.000867 -14.925013 94 35274ft 529kts
04-May-18 13:20 51.001101 -14.692264 93 35262ft 529kts
04-May-18 13:21 51.001093 -14.458657 93 35262ft 529kts
04-May-18 13:22 51.000601 -14.225660 93 35266ft 529kts
04-May-18 13:23 50.996957 -13.993763 103 35263ft 523kts
04-May-18 13:24 50.968018 -13.770130 107 35260ft 515kts
04-May-18 13:25 50.936988 -13.549146 107 35262ft 512kts
04-May-18 13:26 50.905631 -13.331106 106 35263ft 507kts
04-May-18 13:27 50.874095 -13.115001 105 35264ft 502kts
04-May-18 13:28 50.842824 -12.903632 105 35265ft 499kts
04-May-18 13:29 50.811045 -12.686909 106 35261ft 499kts
04-May-18 13:30 50.778754 -12.474062 106 35262ft 499kts
04-May-18 13:31 50.746540 -12.264917 106 35264ft 499kts
04-May-18 13:32 50.713711 -12.054536 106 35265ft 499kts
04-May-18 13:33 50.681863 -11.851835 106 35259ft 499kts
04-May-18 13:34 50.648783 -11.641532 106 35261ft 498kts
04-May-18 13:35 50.614709 -11.431047 107 35262ft 499kts
04-May-18 13:36 50.580249 -11.221027 107 35263ft 499kts
04-May-18 13:37 50.545142 -11.009705 107 35264ft 499kts
04-May-18 13:38 50.510570 -10.801194 107 35259ft 498kts
04-May-18 13:39 50.475215 -10.591719 108 35258ft 493kts
04-May-18 13:40 50.439675 -10.385388 108 35266ft 494kts
04-May-18 13:41 50.403499 -10.177813 108 35266ft 494kts
04-May-18 13:42 50.367058 -9.971143 108 35267ft 494kts
04-May-18 13:43 50.330857 -9.764789 108 35264ft 494kts
04-May-18 13:44 50.293769 -9.558250 108 35264ft 494kts
04-May-18 13:45 50.256260 -9.352624 108 35265ft 494kts
04-May-18 13:46 50.218216 -9.146439 108 35266ft 494kts
04-May-18 13:47 50.179918 -8.941231 108 35266ft 493kts
04-May-18 13:48 50.142091 -8.737128 108 35263ft 492kts
04-May-18 13:49 50.103182 -8.532455 108 35263ft 492kts
04-May-18 13:50 50.063909 -8.328677 108 35264ft 492kts
04-May-18 13:51 50.024529 -8.126541 108 35265ft 492kts
04-May-18 13:52 49.990632 -7.920312 98 35269ft 495kts
04-May-18 13:53 49.972108 -7.710166 100 35262ft 494kts
04-May-18 13:54 49.951330 -7.499155 100 35263ft 494kts
04-May-18 13:54 49.933662 -7.324268 100 35273ft 494kts
04-May-18 13:55 49.912024 -7.113932 100 35291ft 494kts
04-May-18 13:56 49.890137 -6.904919 99 35291ft 490kts
04-May-18 13:57 49.868789 -6.698068 99 35289ft 491kts
04-May-18 13:58 49.846313 -6.490201 100 35290ft 491kts
04-May-18 13:59 49.823370 -6.282299 100 35291ft 491kts
04-May-18 14:00 49.800043 -6.074515 100 35291ft 491kts
04-May-18 14:01 49.776732 -5.869734 100 35289ft 491kts
04-May-18 14:02 49.753417 -5.663042 100 35289ft 491kts
04-May-18 14:03 49.729439 -5.459225 100 35290ft 491kts
04-May-18 14:04 49.704748 -5.253035 100 35291ft 491kts
04-May-18 14:05 49.679556 -5.045966 100 35291ft 491kts
04-May-18 14:06 49.654542 -4.841532 99 35290ft 486kts
04-May-18 14:07 49.630155 -4.643197 100 35291ft 484kts
04-May-18 14:08 49.604396 -4.440512 100 35292ft 484kts
04-May-18 14:09 49.576466 -4.239576 102 35292ft 484kts
04-May-18 14:10 49.545287 -4.036291 102 35292ft 484kts
04-May-18 14:11 49.514642 -3.836829 102 35291ft 484kts
04-May-18 14:12 49.483469 -3.635580 102 35291ft 484kts
04-May-18 14:13 49.451605 -3.435021 102 35275ft 484kts
04-May-18 14:14 49.419433 -3.235117 102 35173ft 485kts
04-May-18 14:15 49.386923 -3.035595 102 35000ft 484kts
04-May-18 14:16 49.354479 -2.836925 101 34996ft 479kts
04-May-18 14:17 49.321968 -2.639255 102 34998ft 479kts
04-May-18 14:18 49.288745 -2.442108 102 35185ft 479kts
04-May-18 14:19 49.255165 -2.245266 102 35288ft 479kts
04-May-18 14:20 49.222393 -2.047580 95 35281ft 476kts
04-May-18 14:21 49.216139 -1.848006 89 35289ft 474kts
04-May-18 14:22 49.211283 -1.647218 90 35289ft 474kts
04-May-18 14:23 49.205649 -1.446883 90 35289ft 474kts
04-May-18 14:24 49.199595 -1.245258 90 35289ft 474kts
04-May-18 14:25 49.193204 -1.044495 89 35289ft 471kts
04-May-18 14:26 49.187017 -0.854441 89 35289ft 469kts
04-May-18 14:27 49.180566 -0.655577 90 35289ft 469kts
04-May-18 14:28 49.169344 -0.456816 101 36365ft 474kts
04-May-18 14:29 49.121910 -0.268643 109 37287ft 477kts
04-May-18 14:30 49.072250 -0.082948 108 37289ft 470kts
04-May-18 14:31 49.023116 0.099030 107 37288ft 463kts
04-May-18 14:32 48.976202 0.274005 108 37291ft 455kts
04-May-18 14:33 48.927997 0.450155 108 37292ft 452kts
04-May-18 14:34 48.879457 0.625872 108 37277ft 452kts
04-May-18 14:35 48.831430 0.801661 107 37263ft 451kts
04-May-18 14:36 48.783961 0.977441 107 37262ft 451kts
04-May-18 14:37 48.738278 1.146116 106 37268ft 447kts
04-May-18 14:38 48.701618 1.281823 107 37268ft 446kts
04-May-18 14:39 48.672744 1.439361 96 37270ft 442kts
04-May-18 14:40 48.647971 1.620736 96 37248ft 441kts
04-May-18 14:41 48.623051 1.801439 96 37237ft 441kts
04-May-18 14:42 48.597706 1.982951 96 37237ft 441kts
04-May-18 14:43 48.573561 2.152050 100 37240ft 444kts
04-May-18 14:44 48.511155 2.317284 118 37244ft 460kts
04-May-18 14:45 48.442331 2.467169 118 37228ft 460kts
04-May-18 14:46 48.374155 2.614305 118 37207ft 460kts
04-May-18 14:47 48.301683 2.769798 118 37205ft 460kts
04-May-18 14:48 48.207952 2.903054 135 37207ft 475kts
04-May-18 14:49 48.103803 3.023573 137 37203ft 475kts
04-May-18 14:50 47.985049 3.109099 150 37208ft 488kts
04-May-18 14:51 47.862237 3.187480 150 37039ft 491kts
04-May-18 14:52 47.737238 3.265561 150 35272ft 491kts
04-May-18 14:54 47.611068 3.343925 151 32071ft 504kts
04-May-18 14:55 47.483719 3.422483 151 29904ft 484kts
04-May-18 14:56 47.383808 3.483922 151 29159ft 463kts
04-May-18 14:57 47.264961 3.556694 151 29122ft 464kts
04-May-18 14:58 47.146768 3.628686 151 29072ft 464kts
04-May-18 14:59 47.027800 3.700800 151 29072ft 464kts
04-May-18 15:00 46.932238 3.811996 116 29071ft 428kts
04-May-18 15:01 46.884194 3.967476 106 29074ft 417kts
04-May-18 15:02 46.842609 4.120905 106 29072ft 418kts
04-May-18 15:03 46.803514 4.277892 98 29070ft 412kts
04-May-18 15:04 46.779526 4.440992 97 29080ft 411kts
04-May-18 15:05 46.755513 4.603495 97 29061ft 413kts
04-May-18 15:06 46.731350 4.765380 97 27556ft 403kts
04-May-18 15:07 46.707537 4.923540 98 26060ft 400kts
04-May-18 15:08 46.683611 5.080823 98 24547ft 396kts
04-May-18 15:09 46.663125 5.218176 99 23230ft 389kts
04-May-18 15:10 46.640148 5.370026 99 21746ft 381kts
04-May-18 15:11 46.617272 5.518680 99 20259ft 375kts
04-May-18 15:12 46.594398 5.664771 99 18763ft 367kts
04-May-18 15:13 46.566601 5.804623 119 17259ft 368kts
04-May-18 15:14 46.489965 5.895226 141 15698ft 366kts
04-May-18 15:15 46.423533 5.962029 141 13359ft 301kts
04-May-18 15:16 46.372859 6.020888 118 12263ft 293kts
04-May-18 15:17 46.383462 6.113701 47 10921ft 277kts
04-May-18 15:18 46.426053 6.177595 46 9971ft 276kts
04-May-18 15:19 46.464522 6.234537 46 9199ft 275kts
04-May-18 15:20 46.515641 6.311144 55 7994ft 264kts
04-May-18 15:21 46.499707 6.401065 130 7042ft 246kts
04-May-18 15:22 46.450922 6.442506 212 7104ft 212kts
04-May-18 15:23 46.414970 6.376119 228 6304ft 206kts
04-May-18 15:24 46.377251 6.315440 225 5097ft 202kts
04-May-18 15:25 46.341239 6.261174 224 4001ft 170kts
04-May-18 15:26 46.311114 6.216573 223 3072ft 149kts
04-May-18 15:27 46.282577 6.174488 224 2312ft 147kts
04-May-18 15:28 46.254354 6.132861 224 1555ft 144kts
04-May-18 15:29 46.236746 6.107653 205 1375ft 19kts
04-May-18 15:30 46.235011 6.106900 196 1375ft 5kts
04-May-18 15:31 46.233617 6.108667 44 1375ft 7kts
04-May-18 15:32 46.234451 6.111019 136 1375ft 7kts
04-May-18 15:33 46.234266 6.111279 135 1375ft 0kts
04-May-18 15:34 46.234266 6.111279 135 1375ft 0kts
04-May-18 15:35 46.234266 6.111279 135 1375ft 0kts
04-May-18 15:36 46.234266 6.111279 135 1375ft 0kts
04-May-18 15:37 46.234266 6.111279 135 1375ft 0kts
04-May-18 15:38 46.234266 6.111279 135 1375ft 0kts
04-May-18 15:39 46.234266 6.111279 135 1375ft 0kts
04-May-18 15:40 46.234266 6.111279 135 1375ft 0kts
04-May-18 15:41 46.234266 6.111279 135 1375ft 0kts
04-May-18 15:42 46.234266 6.111279 135 1375ft 0kts
04-May-18 15:43 46.234266 6.111279 135 1375ft 0kts

Navigation Log

Ident Type
Flight plan parsing failed, navigation log unavailable